createdAt,value
2022-09-29T00:00:23.965Z,0.22
2022-09-29T00:03:46.136Z,0.40
2022-09-29T00:07:08.374Z,0.22
2022-09-29T00:10:30.521Z,0.20
2022-09-29T00:13:53.007Z,0.50
2022-09-29T00:17:15.889Z,0.20
2022-09-29T00:20:38.952Z,0.30
2022-09-29T00:24:01.677Z,0.50
2022-09-29T00:27:23.950Z,0.32
2022-09-29T00:30:46.186Z,0.20
2022-09-29T00:34:08.395Z,0.10
2022-09-29T00:37:30.905Z,0.30
2022-09-29T00:40:53.288Z,0.20
2022-09-29T00:44:15.511Z,0.28
2022-09-29T00:47:39.560Z,0.30
2022-09-29T00:51:02.313Z,0.30
2022-09-29T00:54:30.333Z,0.25
2022-09-29T00:58:02.156Z,0.13
2022-09-29T01:01:28.507Z,0.30
2022-09-29T01:04:53.523Z,0.22
2022-09-29T01:08:24.590Z,0.20
2022-09-29T01:11:47.712Z,0.22
2022-09-29T01:15:09.976Z,0.20
2022-09-29T01:18:32.877Z,0.30
2022-09-29T01:22:08.284Z,0.40
2022-09-29T01:26:15.074Z,0.60
2022-09-29T01:29:56.065Z,0.20
2022-09-29T01:33:23.754Z,0.45
2022-09-29T01:37:00.083Z,0.30
2022-09-29T01:41:14.667Z,0.20
2022-09-29T01:44:43.030Z,0.30
2022-09-29T01:48:27.881Z,0.20
2022-09-29T01:51:57.861Z,0.15
2022-09-29T01:55:24.552Z,0.40
2022-09-29T01:58:49.598Z,0.20
2022-09-29T02:02:18.874Z,0.20
2022-09-29T02:05:55.104Z,0.40
2022-09-29T02:09:26.031Z,0.20
2022-09-29T02:12:50.017Z,0.25
2022-09-29T02:16:16.865Z,0.20
2022-09-29T02:19:42.228Z,0.20
2022-09-29T02:23:04.698Z,0.30
2022-09-29T02:26:30.870Z,0.20
2022-09-29T02:29:53.820Z,0.10
2022-09-29T02:33:24.114Z,0.20
2022-09-29T02:37:07.123Z,0.20
2022-09-29T02:40:48.593Z,0.40
2022-09-29T02:44:41.566Z,0.20
2022-09-29T02:48:09.595Z,0.28
2022-09-29T02:51:39.964Z,0.20
2022-09-29T02:55:14.379Z,0.20
2022-09-29T02:58:55.877Z,0.40
2022-09-29T03:02:24.801Z,0.20
2022-09-29T03:05:47.199Z,0.40
2022-09-29T03:09:09.501Z,0.20
2022-09-29T03:12:31.737Z,0.40
2022-09-29T03:15:54.087Z,0.13
2022-09-29T03:19:16.238Z,0.30
2022-09-29T03:22:38.470Z,0.20
2022-09-29T03:26:00.578Z,0.32
2022-09-29T03:29:22.762Z,0.20
2022-09-29T03:32:44.976Z,0.10
2022-09-29T03:36:08.887Z,0.13
2022-09-29T03:39:31.018Z,0.43
2022-09-29T03:42:53.233Z,0.30
2022-09-29T03:46:15.428Z,0.30
2022-09-29T03:49:37.610Z,0.20
2022-09-29T03:52:59.836Z,0.40
2022-09-29T03:56:22.296Z,0.20
2022-09-29T03:59:45.755Z,0.50
2022-09-29T04:03:08.548Z,0.25
2022-09-29T04:06:30.728Z,0.20
2022-09-29T04:09:52.989Z,0.15
2022-09-29T04:13:19.658Z,0.20
2022-09-29T04:16:42.458Z,0.15
2022-09-29T04:20:04.920Z,0.17
2022-09-29T04:23:30.387Z,0.30
2022-09-29T04:26:52.611Z,0.13
2022-09-29T04:30:15.199Z,0.20
2022-09-29T04:33:39.167Z,0.20
2022-09-29T04:37:01.448Z,0.15
2022-09-29T04:40:24.511Z,0.20
2022-09-29T04:43:46.681Z,0.20
2022-09-29T04:47:08.882Z,0.28
2022-09-29T04:50:31.461Z,0.20
2022-09-29T04:53:53.580Z,0.20
2022-09-29T04:57:15.736Z,0.20
2022-09-29T05:00:37.900Z,0.22
2022-09-29T05:04:00.185Z,0.30
2022-09-29T05:07:22.522Z,0.20
2022-09-29T05:10:47.802Z,0.20
2022-09-29T05:14:11.120Z,0.22
2022-09-29T05:17:33.757Z,0.30
2022-09-29T05:21:16.257Z,0.20
2022-09-29T05:24:38.152Z,0.30
2022-09-29T05:28:00.505Z,0.20
2022-09-29T05:31:22.774Z,0.30
2022-09-29T05:34:45.078Z,0.20
2022-09-29T05:38:13.962Z,0.45
2022-09-29T05:41:36.079Z,0.50
2022-09-29T05:44:58.185Z,2.45
2022-09-29T05:48:20.290Z,3.55
2022-09-29T05:51:42.394Z,3.30
2022-09-29T05:55:05.513Z,3.10
2022-09-29T05:58:27.649Z,3.28
2022-09-29T06:01:49.982Z,2.70
2022-09-29T06:05:12.232Z,2.60
2022-09-29T06:08:34.681Z,2.35
2022-09-29T06:11:56.801Z,2.03
2022-09-29T06:15:18.909Z,1.90
2022-09-29T06:18:41.562Z,1.70
2022-09-29T06:22:03.706Z,1.52
2022-09-29T06:25:25.875Z,1.60
2022-09-29T06:28:48.412Z,1.20
2022-09-29T06:32:10.674Z,1.52
2022-09-29T06:35:51.499Z,1.15
2022-09-29T06:39:15.275Z,1.50
2022-09-29T06:42:38.249Z,1.10
2022-09-29T06:46:00.420Z,1.70
2022-09-29T06:49:24.059Z,1.10
2022-09-29T06:52:57.828Z,1.13
2022-09-29T06:56:25.280Z,1.08
2022-09-29T06:59:47.450Z,0.88
2022-09-29T07:03:09.757Z,0.90
2022-09-29T07:06:32.085Z,0.90
2022-09-29T07:09:54.190Z,0.82
2022-09-29T07:13:16.402Z,0.80
2022-09-29T07:16:38.606Z,0.90
2022-09-29T07:20:00.950Z,0.80
2022-09-29T07:23:23.122Z,0.60
2022-09-29T07:26:45.261Z,0.75
2022-09-29T07:30:08.240Z,0.60
2022-09-29T07:33:38.588Z,0.80
2022-09-29T07:37:01.490Z,0.50
2022-09-29T07:40:24.902Z,0.90
2022-09-29T07:43:47.382Z,0.80
2022-09-29T07:47:09.664Z,0.60
2022-09-29T07:50:31.798Z,0.70
2022-09-29T07:53:54.023Z,0.68
2022-09-29T07:57:16.159Z,0.65
2022-09-29T08:00:38.300Z,0.70
2022-09-29T08:04:02.018Z,0.50
2022-09-29T08:07:24.322Z,0.52
2022-09-29T08:10:52.755Z,0.43
2022-09-29T08:14:15.802Z,0.40
2022-09-29T08:17:38.066Z,0.38
2022-09-29T08:21:03.674Z,0.68
2022-09-29T08:24:26.469Z,0.65
2022-09-29T08:27:55.101Z,0.50
2022-09-29T08:31:21.260Z,0.43
2022-09-29T08:34:43.532Z,0.57
2022-09-29T08:38:05.692Z,0.35
2022-09-29T08:41:54.318Z,0.60
2022-09-29T08:45:28.263Z,0.85
2022-09-29T08:48:58.465Z,0.40
2022-09-29T08:52:25.915Z,0.50
2022-09-29T08:55:53.454Z,0.77
2022-09-29T08:59:15.778Z,0.57
2022-09-29T09:02:44.069Z,0.77
2022-09-29T09:10:11.257Z,0.50
2022-09-29T09:13:39.144Z,0.73
2022-09-29T09:17:10.330Z,0.55
2022-09-29T09:20:41.721Z,0.70
2022-09-29T09:24:22.750Z,0.65
2022-09-29T09:27:53.477Z,1.27
2022-09-29T09:31:15.625Z,0.75
2022-09-29T09:34:45.555Z,0.68
2022-09-29T09:38:20.365Z,1.00
2022-09-29T09:41:47.877Z,0.90
2022-09-29T09:45:18.985Z,0.90
2022-09-29T09:48:56.534Z,1.00
2022-09-29T09:52:24.574Z,1.00
2022-09-29T09:55:58.674Z,1.50
2022-09-29T09:59:52.819Z,1.08
2022-09-29T10:03:17.462Z,1.70
2022-09-29T10:06:40.066Z,0.90
2022-09-29T10:10:06.147Z,0.65
2022-09-29T10:13:30.800Z,0.40
2022-09-29T10:17:05.255Z,0.50
2022-09-29T10:20:45.806Z,0.40
2022-09-29T10:24:24.336Z,0.40
2022-09-29T10:27:53.093Z,0.20
2022-09-29T10:31:24.755Z,0.30
2022-09-29T10:34:51.781Z,0.40
2022-09-29T10:38:27.333Z,0.30
2022-09-29T10:45:18.012Z,0.30
2022-09-29T10:48:40.149Z,0.20
2022-09-29T10:52:17.142Z,0.30
2022-09-29T10:55:51.873Z,0.30
2022-09-29T10:59:15.213Z,0.45
2022-09-29T11:02:40.596Z,0.30
2022-09-29T11:06:09.466Z,0.25
2022-09-29T11:09:38.644Z,0.30
2022-09-29T11:13:24.151Z,0.30
2022-09-29T11:16:54.893Z,0.30
2022-09-29T11:20:18.222Z,0.30
2022-09-29T11:23:49.042Z,0.32
2022-09-29T11:27:52.055Z,0.22
2022-09-29T11:31:31.593Z,0.30
2022-09-29T11:35:21.675Z,0.60
2022-09-29T11:39:11.653Z,0.30
2022-09-29T11:42:55.559Z,0.20
2022-09-29T11:46:39.390Z,0.40
2022-09-29T11:50:22.865Z,0.30
2022-09-29T11:54:19.994Z,0.20
2022-09-29T11:58:02.182Z,0.30
2022-09-29T12:01:48.712Z,0.20
2022-09-29T12:05:24.363Z,0.20
2022-09-29T12:08:54.109Z,0.20
2022-09-29T12:12:42.664Z,0.70
2022-09-29T12:16:13.638Z,0.20
2022-09-29T12:19:39.670Z,0.30
2022-09-29T12:23:07.569Z,0.25
2022-09-29T12:26:31.862Z,0.30
2022-09-29T12:29:59.278Z,0.30
2022-09-29T12:33:46.550Z,0.30
2022-09-29T12:37:41.022Z,0.20
2022-09-29T12:41:22.616Z,0.30
2022-09-29T12:44:59.002Z,0.20
2022-09-29T12:48:40.446Z,0.20
2022-09-29T12:52:06.346Z,0.32
2022-09-29T12:55:41.090Z,0.15
2022-09-29T12:59:37.225Z,0.45
2022-09-29T13:07:21.441Z,0.30
2022-09-29T13:10:54.616Z,0.17
2022-09-29T13:14:19.568Z,0.47
2022-09-29T13:18:21.334Z,0.20
2022-09-29T13:22:01.667Z,0.35
2022-09-29T13:25:29.294Z,0.20
2022-09-29T13:28:57.709Z,0.45
2022-09-29T13:32:20.245Z,0.50
2022-09-29T13:35:48.515Z,0.60
2022-09-29T13:39:22.914Z,0.70
2022-09-29T13:42:47.251Z,0.60
2022-09-29T13:46:27.987Z,0.97
2022-09-29T13:49:50.243Z,0.75
2022-09-29T13:53:33.455Z,0.65
2022-09-29T13:57:14.695Z,0.77
2022-09-29T14:00:42.920Z,0.65
2022-09-29T14:04:43.671Z,0.80
2022-09-29T14:08:23.512Z,0.73
2022-09-29T14:11:54.073Z,0.77
2022-09-29T14:15:18.812Z,0.77
2022-09-29T14:19:01.518Z,0.63
2022-09-29T14:22:43.872Z,0.90
2022-09-29T14:26:25.993Z,0.60
2022-09-29T14:29:53.673Z,0.52
2022-09-29T14:33:49.929Z,0.70
2022-09-29T14:37:19.601Z,0.80
2022-09-29T14:41:11.267Z,0.65
2022-09-29T14:45:12.901Z,0.40
2022-09-29T14:49:21.818Z,0.50
2022-09-29T14:53:09.458Z,0.60
2022-09-29T14:56:34.519Z,0.57
2022-09-29T15:00:06.358Z,0.50
2022-09-29T15:03:35.150Z,0.60
2022-09-29T15:07:04.046Z,0.50
2022-09-29T15:10:32.500Z,0.68
2022-09-29T15:13:56.624Z,0.40
2022-09-29T15:18:08.331Z,0.50
2022-09-29T15:21:36.840Z,0.50
2022-09-29T15:25:43.334Z,0.50
2022-09-29T15:29:07.445Z,0.38
2022-09-29T15:32:31.946Z,0.40
2022-09-29T15:36:17.188Z,0.40
2022-09-29T15:39:45.124Z,0.50
2022-09-29T15:43:28.451Z,0.40
2022-09-29T15:46:56.011Z,0.35
2022-09-29T15:50:24.504Z,0.47
2022-09-29T15:53:46.804Z,0.35
2022-09-29T15:57:58.456Z,0.30
2022-09-29T16:01:20.850Z,0.20
2022-09-29T16:04:45.401Z,0.40
2022-09-29T16:08:22.920Z,0.13
2022-09-29T16:11:45.679Z,0.30
2022-09-29T16:15:16.874Z,0.30
2022-09-29T16:18:52.942Z,0.30
2022-09-29T16:22:23.478Z,0.10
2022-09-29T16:25:45.851Z,0.47
2022-09-29T16:29:10.821Z,0.20
2022-09-29T16:32:32.939Z,0.13
2022-09-29T16:35:55.032Z,0.30
2022-09-29T16:39:20.334Z,0.20
2022-09-29T16:42:49.134Z,0.25
2022-09-29T16:46:19.875Z,0.40
2022-09-29T16:49:50.338Z,0.10
2022-09-29T16:53:30.494Z,0.35
2022-09-29T16:57:27.625Z,0.15
2022-09-29T17:00:49.779Z,0.22
2022-09-29T17:04:12.877Z,0.20
2022-09-29T17:07:39.965Z,0.20
2022-09-29T17:11:05.243Z,0.60
2022-09-29T17:14:30.166Z,0.30
2022-09-29T17:17:53.434Z,0.30
2022-09-29T17:21:15.623Z,0.20
2022-09-29T17:24:37.721Z,0.32
2022-09-29T17:28:12.326Z,0.30
2022-09-29T17:31:34.894Z,0.40
2022-09-29T17:34:57.050Z,0.20
2022-09-29T17:38:19.474Z,0.30
2022-09-29T17:41:45.852Z,0.20
2022-09-29T17:45:08.567Z,0.40
2022-09-29T17:48:32.839Z,0.35
2022-09-29T17:51:54.990Z,0.30
2022-09-29T17:55:17.903Z,0.35
2022-09-29T17:58:40.195Z,0.40
2022-09-29T18:02:02.681Z,0.40
2022-09-29T18:05:27.949Z,0.40
2022-09-29T18:12:16.434Z,0.57
2022-09-29T18:15:39.259Z,0.38
2022-09-29T18:19:01.480Z,0.40
2022-09-29T18:22:24.254Z,0.40
2022-09-29T18:25:49.014Z,0.57
2022-09-29T18:29:16.997Z,0.40
2022-09-29T18:32:39.361Z,0.50
2022-09-29T18:36:01.997Z,0.60
2022-09-29T18:39:24.133Z,0.30
2022-09-29T18:42:48.839Z,0.30
2022-09-29T18:46:11.520Z,0.32
2022-09-29T18:49:33.673Z,0.30
2022-09-29T18:52:56.398Z,0.50
2022-09-29T18:56:18.550Z,0.25
2022-09-29T18:59:40.717Z,0.20
2022-09-29T19:03:05.103Z,0.52
2022-09-29T19:06:28.615Z,0.43
2022-09-29T19:09:50.823Z,0.40
2022-09-29T19:13:15.338Z,0.30
2022-09-29T19:16:37.462Z,0.53
2022-09-29T19:20:00.495Z,0.40
2022-09-29T19:23:25.090Z,0.30
2022-09-29T19:26:47.278Z,0.50
2022-09-29T19:30:11.010Z,0.50
2022-09-29T19:33:33.477Z,0.40
2022-09-29T19:36:55.605Z,0.70
2022-09-29T19:40:23.154Z,0.20
2022-09-29T19:43:45.993Z,0.40
2022-09-29T19:47:09.030Z,0.30
2022-09-29T19:50:49.530Z,0.30
2022-09-29T19:54:14.078Z,0.30
2022-09-29T19:57:40.954Z,0.40
2022-09-29T20:01:03.965Z,0.30
2022-09-29T20:04:30.313Z,0.38
2022-09-29T20:07:52.698Z,0.65
2022-09-29T20:11:15.002Z,0.40
2022-09-29T20:14:39.239Z,0.50
2022-09-29T20:18:01.473Z,0.57
2022-09-29T20:21:24.522Z,0.57
2022-09-29T20:24:48.010Z,0.50
2022-09-29T20:28:15.120Z,0.80
2022-09-29T20:31:38.552Z,0.50
2022-09-29T20:35:00.853Z,0.50
2022-09-29T20:38:23.069Z,0.38
2022-09-29T20:41:45.545Z,0.45
2022-09-29T20:45:08.349Z,0.60
2022-09-29T20:48:31.876Z,0.43
2022-09-29T20:51:54.528Z,0.40
2022-09-29T20:55:16.628Z,0.52
2022-09-29T20:58:44.042Z,0.50
2022-09-29T21:02:08.634Z,0.40
2022-09-29T21:05:31.094Z,0.40
2022-09-29T21:08:54.482Z,0.40
2022-09-29T21:12:16.754Z,0.70
2022-09-29T21:15:39.253Z,0.43
2022-09-29T21:19:01.620Z,0.55
2022-09-29T21:22:27.469Z,0.50
2022-09-29T21:26:05.497Z,0.55
2022-09-29T21:29:28.533Z,0.47
2022-09-29T21:32:50.641Z,0.40
2022-09-29T21:36:15.358Z,0.50
2022-09-29T21:39:37.507Z,0.50
2022-09-29T21:42:59.714Z,0.50
2022-09-29T21:46:24.787Z,0.50
2022-09-29T21:49:46.934Z,0.88
2022-09-29T21:53:09.861Z,0.60
2022-09-29T21:56:35.558Z,0.93
2022-09-29T21:59:58.474Z,0.57
2022-09-29T22:03:20.705Z,0.68
2022-09-29T22:06:44.708Z,0.70
2022-09-29T22:10:07.841Z,0.70
2022-09-29T22:13:30.010Z,0.73
2022-09-29T22:16:52.485Z,0.65
2022-09-29T22:20:14.705Z,0.70
2022-09-29T22:23:37.638Z,0.70
2022-09-29T22:26:59.751Z,0.90
2022-09-29T22:30:23.130Z,0.80
2022-09-29T22:33:45.749Z,0.65
2022-09-29T22:37:07.935Z,0.60
2022-09-29T22:40:32.970Z,0.80
2022-09-29T22:43:57.150Z,0.90
2022-09-29T22:47:19.315Z,0.77
2022-09-29T22:50:45.087Z,0.80
2022-09-29T22:54:07.889Z,0.80
2022-09-29T22:57:30.538Z,0.70
2022-09-29T23:01:10.897Z,0.70
2022-09-29T23:04:33.738Z,0.60
2022-09-29T23:07:55.887Z,0.70
2022-09-29T23:11:19.802Z,0.60
2022-09-29T23:14:41.978Z,0.93
2022-09-29T23:18:04.257Z,0.60
2022-09-29T23:21:26.701Z,0.70
2022-09-29T23:24:49.099Z,0.70
2022-09-29T23:28:11.474Z,0.65
2022-09-29T23:31:34.170Z,0.75
2022-09-29T23:34:56.418Z,0.70
2022-09-29T23:38:36.990Z,0.60
2022-09-29T23:41:59.266Z,0.60
2022-09-29T23:45:22.363Z,0.70
2022-09-29T23:48:44.670Z,0.50
2022-09-29T23:52:06.795Z,0.70
2022-09-29T23:55:28.910Z,0.52
2022-09-29T23:58:51.143Z,0.50
